createdAt,value
2023-05-23T00:01:45.490Z,15.90
2023-05-23T00:04:18.942Z,15.60
2023-05-23T00:06:50.659Z,15.70
2023-05-23T00:09:17.899Z,15.70
2023-05-23T00:11:45.610Z,15.60
2023-05-23T00:14:16.994Z,15.50
2023-05-23T00:16:45.323Z,15.60
2023-05-23T00:19:16.359Z,15.50
2023-05-23T00:21:45.747Z,15.50
2023-05-23T00:24:13.163Z,15.60
2023-05-23T00:26:40.137Z,15.50
2023-05-23T00:29:07.449Z,15.40
2023-05-23T00:31:34.661Z,15.40
2023-05-23T00:34:01.594Z,15.50
2023-05-23T00:36:28.497Z,15.40
2023-05-23T00:38:55.834Z,15.30
2023-05-23T00:41:22.771Z,15.40
2023-05-23T00:43:49.603Z,15.30
2023-05-23T00:46:16.847Z,15.20
2023-05-23T00:48:44.048Z,15.10
2023-05-23T00:51:10.973Z,15.10
2023-05-23T00:53:37.979Z,15.00
2023-05-23T00:56:05.115Z,15.00
2023-05-23T00:58:32.457Z,14.90
2023-05-23T01:01:01.057Z,14.90
2023-05-23T01:03:28.842Z,14.90
2023-05-23T01:05:56.809Z,14.90
2023-05-23T01:08:24.199Z,14.80
2023-05-23T01:10:52.134Z,14.80
2023-05-23T01:13:30.946Z,14.70
2023-05-23T01:16:15.209Z,14.70
2023-05-23T01:19:17.704Z,14.70
2023-05-23T01:21:53.055Z,14.70
2023-05-23T01:24:36.402Z,14.60
2023-05-23T01:27:18.947Z,14.60
2023-05-23T01:29:47.655Z,14.50
2023-05-23T01:32:15.986Z,14.40
2023-05-23T01:34:44.152Z,14.40
2023-05-23T01:37:14.548Z,14.40
2023-05-23T01:39:42.234Z,14.30
2023-05-23T01:42:09.865Z,14.30
2023-05-23T01:44:37.305Z,14.20
2023-05-23T01:47:08.332Z,14.30
2023-05-23T01:49:37.193Z,14.30
2023-05-23T01:52:05.813Z,14.30
2023-05-23T01:54:35.410Z,14.30
2023-05-23T01:57:03.701Z,14.30
2023-05-23T01:59:30.658Z,14.20
2023-05-23T02:01:57.589Z,14.20
2023-05-23T02:04:24.507Z,14.20
2023-05-23T02:06:51.431Z,14.20
2023-05-23T02:09:18.787Z,14.20
2023-05-23T02:11:45.692Z,14.20
2023-05-23T02:14:13.054Z,14.20
2023-05-23T02:16:40.039Z,14.10
2023-05-23T02:19:07.421Z,14.10
2023-05-23T02:21:35.555Z,14.10
2023-05-23T02:24:02.877Z,14.10
2023-05-23T02:26:30.781Z,14.00
2023-05-23T02:28:57.680Z,13.90
2023-05-23T02:31:24.589Z,13.90
2023-05-23T02:33:51.532Z,14.00
2023-05-23T02:36:18.536Z,14.00
2023-05-23T02:38:45.481Z,14.10
2023-05-23T02:41:12.665Z,14.00
2023-05-23T02:43:39.694Z,13.90
2023-05-23T02:46:06.777Z,13.90
2023-05-23T02:48:34.104Z,13.90
2023-05-23T02:51:01.176Z,13.90
2023-05-23T02:53:28.489Z,13.80
2023-05-23T02:55:55.477Z,13.90
2023-05-23T02:58:22.350Z,13.80
2023-05-23T03:00:49.619Z,13.70
2023-05-23T03:03:17.732Z,13.70
2023-05-23T03:05:45.176Z,13.70
2023-05-23T03:08:12.171Z,13.70
2023-05-23T03:10:39.069Z,13.60
2023-05-23T03:13:06.000Z,13.60
2023-05-23T03:15:32.903Z,13.90
2023-05-23T03:17:59.902Z,13.90
2023-05-23T03:20:27.343Z,13.90
2023-05-23T03:22:54.171Z,13.90
2023-05-23T03:25:21.083Z,13.90
2023-05-23T03:27:47.962Z,13.90
2023-05-23T03:30:15.351Z,13.90
2023-05-23T03:32:42.430Z,13.90
2023-05-23T03:35:09.814Z,13.90
2023-05-23T03:37:36.675Z,13.80
2023-05-23T03:40:04.073Z,13.80
2023-05-23T03:42:31.467Z,13.80
2023-05-23T03:44:58.424Z,13.80
2023-05-23T03:47:25.415Z,14.00
2023-05-23T03:49:52.765Z,14.00
2023-05-23T03:52:20.029Z,14.10
2023-05-23T03:54:46.896Z,14.20
2023-05-23T03:57:13.827Z,14.20
2023-05-23T03:59:41.762Z,14.10
2023-05-23T04:02:08.721Z,14.20
2023-05-23T04:04:36.271Z,14.30
2023-05-23T04:07:03.240Z,14.40
2023-05-23T04:09:30.616Z,14.50
2023-05-23T04:11:58.495Z,14.40
2023-05-23T04:14:25.439Z,14.60
2023-05-23T04:16:52.489Z,14.60
2023-05-23T04:19:19.947Z,14.70
2023-05-23T04:21:47.377Z,14.80
2023-05-23T04:24:14.332Z,14.80
2023-05-23T04:26:41.424Z,14.90
2023-05-23T04:29:08.820Z,15.00
2023-05-23T04:31:35.693Z,15.10
2023-05-23T04:34:02.847Z,15.20
2023-05-23T04:36:30.312Z,15.30
2023-05-23T04:38:57.295Z,15.50
2023-05-23T04:41:24.517Z,15.70
2023-05-23T04:43:54.386Z,15.70
2023-05-23T04:46:27.673Z,15.80
2023-05-23T04:48:55.342Z,15.90
2023-05-23T04:51:22.515Z,16.00
2023-05-23T04:53:50.534Z,16.20
2023-05-23T04:56:18.594Z,16.30
2023-05-23T04:58:48.114Z,16.40
2023-05-23T05:01:15.074Z,16.50
2023-05-23T05:03:42.102Z,16.70
2023-05-23T05:06:09.195Z,16.70
2023-05-23T05:08:36.941Z,16.60
2023-05-23T05:11:03.893Z,16.70
2023-05-23T05:13:31.212Z,16.80
2023-05-23T05:15:58.945Z,16.90
2023-05-23T05:18:30.127Z,17.00
2023-05-23T05:20:57.465Z,17.10
2023-05-23T05:23:28.984Z,17.20
2023-05-23T05:25:56.589Z,17.30
2023-05-23T05:28:24.130Z,17.50
2023-05-23T05:30:54.414Z,17.60
2023-05-23T05:33:25.324Z,17.70
2023-05-23T05:35:52.271Z,17.80
2023-05-23T05:38:19.115Z,17.90
2023-05-23T05:40:46.065Z,18.00
2023-05-23T05:43:12.989Z,18.00
2023-05-23T05:45:40.333Z,18.20
2023-05-23T05:48:08.267Z,18.20
2023-05-23T05:50:35.337Z,18.30
2023-05-23T05:53:02.332Z,18.30
2023-05-23T05:55:29.570Z,18.40
2023-05-23T05:57:56.631Z,18.30
2023-05-23T06:00:25.317Z,18.40
2023-05-23T06:02:52.675Z,18.50
2023-05-23T06:05:19.799Z,18.40
2023-05-23T06:07:49.756Z,18.60
2023-05-23T06:10:16.799Z,18.70
2023-05-23T06:12:43.747Z,18.60
2023-05-23T06:15:11.140Z,18.70
2023-05-23T06:17:38.182Z,18.50
2023-05-23T06:20:05.921Z,18.30
2023-05-23T06:22:32.944Z,18.30
2023-05-23T06:24:59.999Z,18.20
2023-05-23T06:27:26.890Z,18.20
2023-05-23T06:29:54.016Z,18.30
2023-05-23T06:32:20.922Z,18.40
2023-05-23T06:34:47.817Z,18.60
2023-05-23T06:37:14.818Z,18.70
2023-05-23T06:39:41.716Z,18.80
2023-05-23T06:42:08.685Z,18.90
2023-05-23T06:44:36.098Z,19.20
2023-05-23T06:47:03.054Z,19.40
2023-05-23T06:49:30.415Z,19.60
2023-05-23T06:51:57.380Z,19.80
2023-05-23T06:54:24.756Z,20.00
2023-05-23T06:56:51.690Z,20.10
2023-05-23T06:59:19.680Z,20.20
2023-05-23T07:01:46.834Z,20.10
2023-05-23T07:04:14.424Z,19.90
2023-05-23T07:06:44.245Z,19.90
2023-05-23T07:09:13.209Z,20.20
2023-05-23T07:11:41.306Z,20.30
2023-05-23T07:14:08.759Z,20.20
2023-05-23T07:16:36.040Z,20.30
2023-05-23T07:19:05.640Z,20.50
2023-05-23T07:21:32.671Z,20.50
2023-05-23T07:23:59.573Z,20.70
2023-05-23T07:26:27.604Z,20.80
2023-05-23T07:28:54.735Z,20.80
2023-05-23T07:31:21.896Z,20.80
2023-05-23T07:33:48.939Z,20.80
2023-05-23T07:36:16.590Z,20.90
2023-05-23T07:38:43.866Z,21.00
2023-05-23T07:41:12.411Z,21.10
2023-05-23T07:43:40.698Z,21.20
2023-05-23T07:46:07.793Z,21.30
2023-05-23T07:48:34.844Z,21.50
2023-05-23T07:51:01.830Z,21.60
2023-05-23T07:53:28.868Z,21.90
2023-05-23T07:55:56.800Z,22.00
2023-05-23T07:58:24.257Z,22.10
2023-05-23T08:00:52.720Z,22.30
2023-05-23T08:03:20.649Z,22.40
2023-05-23T08:05:47.788Z,22.50
2023-05-23T08:08:14.749Z,22.60
2023-05-23T08:10:41.799Z,22.80
2023-05-23T08:13:12.750Z,22.80
2023-05-23T08:15:40.092Z,22.80
2023-05-23T08:18:07.501Z,23.00
2023-05-23T08:20:34.501Z,23.10
2023-05-23T08:23:02.653Z,23.20
2023-05-23T08:25:33.213Z,23.30
2023-05-23T08:28:01.607Z,23.40
2023-05-23T08:30:29.636Z,23.50
2023-05-23T08:32:57.889Z,23.70
2023-05-23T08:35:24.845Z,23.80
2023-05-23T08:37:52.552Z,23.90
2023-05-23T08:40:22.164Z,24.00
2023-05-23T08:42:50.952Z,24.10
2023-05-23T08:45:18.818Z,24.30
2023-05-23T08:47:47.574Z,24.50
2023-05-23T08:50:18.021Z,24.70
2023-05-23T08:52:57.715Z,24.80
2023-05-23T08:55:27.359Z,24.70
2023-05-23T08:57:55.292Z,24.70
2023-05-23T09:00:24.910Z,24.80
2023-05-23T09:02:52.830Z,24.90
2023-05-23T09:05:20.389Z,25.00
2023-05-23T09:07:49.199Z,25.10
2023-05-23T09:10:25.622Z,25.20
2023-05-23T09:12:52.565Z,25.40
2023-05-23T09:15:19.457Z,25.60
2023-05-23T09:17:46.991Z,25.70
2023-05-23T09:20:16.785Z,25.80
2023-05-23T09:22:50.111Z,25.80
2023-05-23T09:25:17.290Z,26.00
2023-05-23T09:27:47.506Z,26.10
2023-05-23T09:30:15.883Z,26.10
2023-05-23T09:32:44.742Z,26.20
2023-05-23T09:35:13.910Z,26.30
2023-05-23T09:37:49.020Z,26.40
2023-05-23T09:40:16.639Z,26.50
2023-05-23T09:42:46.362Z,26.60
2023-05-23T09:45:15.052Z,26.80
2023-05-23T09:47:52.358Z,27.00
2023-05-23T09:50:20.081Z,27.20
2023-05-23T09:52:48.187Z,27.30
2023-05-23T09:55:15.703Z,27.50
2023-05-23T09:57:44.439Z,27.60
2023-05-23T10:00:13.865Z,27.60
2023-05-23T10:02:56.148Z,27.80
2023-05-23T10:05:47.523Z,27.90
2023-05-23T10:08:22.372Z,28.00
2023-05-23T10:10:52.525Z,28.10
2023-05-23T10:13:20.779Z,28.10
2023-05-23T10:15:50.757Z,28.20
2023-05-23T10:18:23.757Z,28.10
2023-05-23T10:20:54.215Z,28.10
2023-05-23T10:23:22.164Z,28.20
2023-05-23T10:25:49.606Z,28.30
2023-05-23T10:28:17.499Z,28.40
2023-05-23T10:30:46.028Z,28.40
2023-05-23T10:33:17.141Z,28.50
2023-05-23T10:36:00.697Z,28.60
2023-05-23T10:39:06.140Z,28.60
2023-05-23T10:42:11.439Z,28.70
2023-05-23T10:44:38.418Z,28.90
2023-05-23T10:47:05.971Z,29.00
2023-05-23T10:49:52.045Z,29.00
2023-05-23T10:52:19.403Z,29.10
2023-05-23T10:54:54.261Z,29.10
2023-05-23T10:57:25.587Z,29.10
2023-05-23T10:59:53.624Z,29.10
2023-05-23T11:02:26.588Z,29.10
2023-05-23T11:05:23.475Z,29.30
2023-05-23T11:08:11.187Z,29.30
2023-05-23T11:10:57.065Z,29.50
2023-05-23T11:13:24.730Z,29.60
2023-05-23T11:15:51.905Z,29.60
2023-05-23T11:18:27.903Z,29.60
2023-05-23T11:20:58.424Z,29.60
2023-05-23T11:23:40.881Z,29.70
2023-05-23T11:26:31.350Z,29.80
2023-05-23T11:28:59.508Z,29.90
2023-05-23T11:31:28.063Z,29.90
2023-05-23T11:34:05.933Z,30.00
2023-05-23T11:36:33.912Z,30.20
2023-05-23T11:39:04.756Z,30.30
2023-05-23T11:41:33.584Z,30.60
2023-05-23T11:44:01.706Z,30.80
2023-05-23T11:46:29.455Z,30.90
2023-05-23T11:48:56.914Z,30.90
2023-05-23T11:51:23.967Z,30.60
2023-05-23T11:53:51.324Z,30.80
2023-05-23T11:56:18.744Z,30.80
2023-05-23T11:58:45.685Z,30.90
2023-05-23T12:01:14.047Z,31.00
2023-05-23T12:03:51.488Z,31.10
2023-05-23T12:06:19.699Z,31.20
2023-05-23T12:08:48.462Z,31.20
2023-05-23T12:11:15.753Z,31.40
2023-05-23T12:13:43.239Z,31.50
2023-05-23T12:16:13.309Z,31.50
2023-05-23T12:18:42.871Z,31.50
2023-05-23T12:21:10.167Z,31.70
2023-05-23T12:23:37.550Z,32.10
2023-05-23T12:26:10.372Z,32.40
2023-05-23T12:28:40.394Z,33.50
2023-05-23T12:31:18.316Z,33.40
2023-05-23T12:33:47.926Z,33.90
2023-05-23T12:36:22.864Z,34.00
2023-05-23T12:38:50.057Z,34.50
2023-05-23T12:41:22.379Z,34.90
2023-05-23T12:43:57.160Z,35.50
2023-05-23T12:46:26.123Z,35.50
2023-05-23T12:48:54.108Z,35.70
2023-05-23T12:51:21.692Z,36.40
2023-05-23T12:53:49.007Z,36.40
2023-05-23T12:56:16.089Z,37.10
2023-05-23T12:58:43.918Z,37.80
2023-05-23T13:01:11.291Z,39.20
2023-05-23T13:03:38.519Z,40.20
2023-05-23T13:06:06.758Z,40.40
2023-05-23T13:08:33.802Z,41.60
2023-05-23T13:11:01.222Z,42.10
2023-05-23T13:13:28.551Z,42.40
2023-05-23T13:15:56.032Z,43.60
2023-05-23T13:18:22.999Z,43.40
2023-05-23T13:20:50.124Z,44.30
2023-05-23T13:23:17.477Z,45.60
2023-05-23T13:25:44.556Z,45.80
2023-05-23T13:28:11.562Z,45.60
2023-05-23T13:30:38.452Z,46.20
2023-05-23T13:33:05.580Z,46.90
2023-05-23T13:35:32.600Z,46.90
2023-05-23T13:37:59.578Z,47.70
2023-05-23T13:40:26.903Z,47.70
2023-05-23T13:42:53.818Z,49.00
2023-05-23T13:45:23.104Z,49.30
2023-05-23T13:47:50.681Z,50.10
2023-05-23T13:50:18.049Z,50.90
2023-05-23T13:52:48.176Z,50.90
2023-05-23T13:55:16.644Z,51.50
2023-05-23T13:57:43.555Z,50.80
2023-05-23T14:00:11.564Z,50.90
2023-05-23T14:02:38.495Z,51.60
2023-05-23T14:05:07.380Z,51.50
2023-05-23T14:07:34.720Z,52.00
2023-05-23T14:10:01.850Z,53.30
2023-05-23T14:12:29.140Z,53.70
2023-05-23T14:14:56.114Z,53.60
2023-05-23T14:17:23.154Z,54.10
2023-05-23T14:19:50.629Z,54.60
2023-05-23T14:22:17.659Z,54.90
2023-05-23T14:24:44.610Z,55.60
2023-05-23T14:27:12.225Z,55.90
2023-05-23T14:29:39.594Z,55.30
2023-05-23T14:32:07.088Z,55.30
2023-05-23T14:34:34.283Z,55.10
2023-05-23T14:37:01.390Z,54.60
2023-05-23T14:39:29.115Z,55.30
2023-05-23T14:41:56.600Z,55.00
2023-05-23T14:44:23.725Z,55.30
2023-05-23T14:46:50.852Z,55.10
2023-05-23T14:49:18.302Z,55.00
2023-05-23T14:51:51.210Z,54.40
2023-05-23T14:54:19.840Z,54.10
2023-05-23T14:56:47.253Z,55.40
2023-05-23T14:59:14.341Z,55.90
2023-05-23T15:01:41.875Z,55.20
2023-05-23T15:04:10.140Z,54.70
2023-05-23T15:06:39.160Z,54.90
2023-05-23T15:09:07.427Z,54.70
2023-05-23T15:11:38.962Z,54.10
2023-05-23T15:14:06.433Z,53.10
2023-05-23T15:16:35.223Z,53.50
2023-05-23T15:19:02.351Z,54.00
2023-05-23T15:21:29.325Z,54.00
2023-05-23T15:23:57.740Z,54.00
2023-05-23T15:26:25.189Z,53.80
2023-05-23T15:28:52.560Z,53.20
2023-05-23T15:31:20.733Z,52.40
2023-05-23T15:33:48.045Z,51.60
2023-05-23T15:36:14.952Z,51.30
2023-05-23T15:38:41.841Z,51.70
2023-05-23T15:41:10.110Z,51.90
2023-05-23T15:43:37.192Z,52.60
2023-05-23T15:46:05.451Z,52.40
2023-05-23T15:48:32.731Z,51.60
2023-05-23T15:50:59.613Z,49.90
2023-05-23T15:53:26.558Z,49.90
2023-05-23T15:55:53.629Z,48.90
2023-05-23T15:58:20.768Z,48.10
2023-05-23T16:00:48.050Z,47.20
2023-05-23T16:03:15.009Z,47.20
2023-05-23T16:05:42.585Z,47.60
2023-05-23T16:08:10.487Z,47.40
2023-05-23T16:10:37.789Z,48.30
2023-05-23T16:13:04.784Z,48.50
2023-05-23T16:15:32.068Z,48.40
2023-05-23T16:17:59.089Z,47.90
2023-05-23T16:20:26.264Z,47.80
2023-05-23T16:22:53.261Z,47.60
2023-05-23T16:25:20.308Z,46.80
2023-05-23T16:27:47.249Z,47.00
2023-05-23T16:30:14.308Z,46.80
2023-05-23T16:32:41.315Z,46.10
2023-05-23T16:35:08.748Z,46.30
2023-05-23T16:37:38.682Z,46.20
2023-05-23T16:40:09.550Z,46.20
2023-05-23T16:42:40.140Z,45.60
2023-05-23T16:45:07.697Z,45.50
2023-05-23T16:47:35.075Z,45.30
2023-05-23T16:50:02.320Z,45.00
2023-05-23T16:52:30.451Z,44.60
2023-05-23T16:54:58.354Z,44.60
2023-05-23T16:57:25.673Z,44.80
2023-05-23T16:59:52.968Z,44.40
2023-05-23T17:02:20.232Z,43.40
2023-05-23T17:04:47.251Z,42.70
2023-05-23T17:07:15.499Z,41.70
2023-05-23T17:09:42.825Z,41.30
2023-05-23T17:12:09.765Z,40.80
2023-05-23T17:14:36.944Z,40.10
2023-05-23T17:17:05.316Z,39.60
2023-05-23T17:19:32.780Z,39.40
2023-05-23T17:21:59.837Z,38.90
2023-05-23T17:24:26.841Z,38.00
2023-05-23T17:26:54.189Z,36.60
2023-05-23T17:29:21.154Z,36.00
2023-05-23T17:31:48.475Z,35.30
2023-05-23T17:34:16.061Z,34.40
2023-05-23T17:36:43.028Z,33.70
2023-05-23T17:39:10.335Z,33.10
2023-05-23T17:41:37.623Z,32.40
2023-05-23T17:44:04.478Z,31.60
2023-05-23T17:46:31.601Z,30.90
2023-05-23T17:48:58.610Z,30.20
2023-05-23T17:51:25.445Z,29.60
2023-05-23T17:53:53.871Z,29.20
2023-05-23T17:56:23.578Z,28.60
2023-05-23T17:58:51.447Z,28.20
2023-05-23T18:01:18.413Z,27.70
2023-05-23T18:03:45.495Z,27.20
2023-05-23T18:06:12.703Z,26.70
2023-05-23T18:08:41.006Z,26.40
2023-05-23T18:11:07.906Z,26.20
2023-05-23T18:13:34.828Z,25.90
2023-05-23T18:16:01.729Z,25.70
2023-05-23T18:18:28.725Z,25.50
2023-05-23T18:20:55.689Z,25.30
2023-05-23T18:23:23.276Z,25.10
2023-05-23T18:25:50.213Z,24.90
2023-05-23T18:28:17.531Z,24.70
2023-05-23T18:30:45.106Z,24.60
2023-05-23T18:33:12.189Z,24.60
2023-05-23T18:35:39.212Z,24.60
2023-05-23T18:38:06.842Z,24.50
2023-05-23T18:40:33.791Z,24.30
2023-05-23T18:43:00.743Z,23.90
2023-05-23T18:45:27.752Z,23.60
2023-05-23T18:47:55.233Z,23.50
2023-05-23T18:50:22.331Z,23.50
2023-05-23T18:52:49.261Z,23.50
2023-05-23T18:55:16.987Z,23.30
2023-05-23T18:57:44.318Z,23.10
2023-05-23T19:00:12.193Z,23.00
2023-05-23T19:02:44.166Z,22.80
2023-05-23T19:05:12.673Z,22.70
2023-05-23T19:07:39.716Z,22.60
2023-05-23T19:10:07.135Z,22.40
2023-05-23T19:12:34.197Z,22.20
2023-05-23T19:15:01.951Z,22.20
2023-05-23T19:17:28.951Z,22.40
2023-05-23T19:19:56.022Z,22.30
2023-05-23T19:22:23.813Z,22.20
2023-05-23T19:24:50.893Z,22.00
2023-05-23T19:27:17.940Z,22.00
2023-05-23T19:29:45.448Z,21.80
2023-05-23T19:32:12.716Z,21.60
2023-05-23T19:34:39.702Z,21.50
2023-05-23T19:37:06.683Z,21.60
2023-05-23T19:39:33.948Z,21.50
2023-05-23T19:42:01.246Z,21.40
2023-05-23T19:44:28.268Z,22.60
2023-05-23T19:46:55.688Z,21.10
2023-05-23T19:49:22.713Z,21.10
2023-05-23T19:51:49.980Z,21.10
2023-05-23T19:54:17.729Z,21.20
2023-05-23T19:56:45.708Z,21.20
2023-05-23T19:59:13.683Z,21.10
2023-05-23T20:01:40.670Z,21.00
2023-05-23T20:04:10.113Z,20.80
2023-05-23T20:06:37.308Z,20.60
2023-05-23T20:09:05.147Z,20.50
2023-05-23T20:11:32.469Z,20.40
2023-05-23T20:13:59.343Z,20.40
2023-05-23T20:16:26.482Z,20.30
2023-05-23T20:18:53.439Z,20.30
2023-05-23T20:21:20.849Z,20.40
2023-05-23T20:23:49.157Z,20.20
2023-05-23T20:26:16.422Z,20.10
2023-05-23T20:28:43.354Z,20.00
2023-05-23T20:31:10.654Z,19.90
2023-05-23T20:33:37.568Z,19.70
2023-05-23T20:36:04.815Z,19.80
2023-05-23T20:38:34.056Z,19.90
2023-05-23T20:41:06.615Z,20.00
2023-05-23T20:43:37.452Z,20.00
2023-05-23T20:46:09.382Z,19.80
2023-05-23T20:48:36.730Z,19.70
2023-05-23T20:51:05.762Z,19.60
2023-05-23T20:53:33.693Z,19.40
2023-05-23T20:56:01.272Z,19.40
2023-05-23T20:58:28.222Z,19.30
2023-05-23T21:00:55.928Z,19.30
2023-05-23T21:03:22.871Z,19.40
2023-05-23T21:05:50.019Z,19.50
2023-05-23T21:08:16.938Z,19.40
2023-05-23T21:10:46.785Z,19.60
2023-05-23T21:13:16.656Z,19.80
2023-05-23T21:15:43.900Z,19.90
2023-05-23T21:18:10.990Z,19.80
2023-05-23T21:20:38.353Z,19.60
2023-05-23T21:23:07.758Z,19.50
2023-05-23T21:25:34.624Z,19.60
2023-05-23T21:28:01.534Z,19.50
2023-05-23T21:30:28.954Z,19.60
2023-05-23T21:32:56.394Z,19.50
2023-05-23T21:35:23.335Z,19.30
2023-05-23T21:37:50.839Z,19.20
2023-05-23T21:40:18.016Z,19.20
2023-05-23T21:42:44.940Z,19.30
2023-05-23T21:45:11.968Z,19.10
2023-05-23T21:47:39.368Z,19.00
2023-05-23T21:50:07.063Z,18.90
2023-05-23T21:52:34.801Z,18.90
2023-05-23T21:55:02.134Z,18.90
2023-05-23T21:57:29.039Z,18.90
2023-05-23T21:59:55.909Z,18.90
2023-05-23T22:02:23.232Z,18.90
2023-05-23T22:04:50.581Z,18.80
2023-05-23T22:07:19.421Z,18.70
2023-05-23T22:09:46.447Z,18.60
2023-05-23T22:12:13.921Z,18.60
2023-05-23T22:14:41.241Z,18.60
2023-05-23T22:17:10.017Z,18.50
2023-05-23T22:19:37.638Z,18.60
2023-05-23T22:22:04.769Z,18.60
2023-05-23T22:24:31.709Z,18.50
2023-05-23T22:27:00.728Z,18.30
2023-05-23T22:29:27.712Z,18.10
2023-05-23T22:31:54.681Z,18.00
2023-05-23T22:34:23.985Z,18.00
2023-05-23T22:36:50.870Z,18.00
2023-05-23T22:39:17.791Z,18.00
2023-05-23T22:41:44.679Z,17.90
2023-05-23T22:44:11.897Z,18.00
2023-05-23T22:46:39.594Z,17.90
2023-05-23T22:49:08.862Z,17.90
2023-05-23T22:51:36.106Z,17.80
2023-05-23T22:54:03.164Z,17.80
2023-05-23T22:56:30.086Z,17.90
2023-05-23T22:58:57.349Z,18.00
2023-05-23T23:01:24.267Z,18.00
2023-05-23T23:03:51.174Z,18.00
2023-05-23T23:06:21.054Z,17.90
2023-05-23T23:08:48.031Z,17.90
2023-05-23T23:11:14.995Z,17.80
2023-05-23T23:13:41.967Z,17.80
2023-05-23T23:16:09.231Z,17.80
2023-05-23T23:18:36.222Z,17.80
2023-05-23T23:21:03.625Z,17.70
2023-05-23T23:23:30.906Z,17.60
2023-05-23T23:25:59.502Z,17.60
2023-05-23T23:28:26.530Z,17.50
2023-05-23T23:30:53.994Z,17.50
2023-05-23T23:33:21.022Z,17.60
2023-05-23T23:35:48.586Z,17.40
2023-05-23T23:38:16.480Z,17.40
2023-05-23T23:40:45.579Z,17.60
2023-05-23T23:43:13.314Z,18.00
2023-05-23T23:45:40.361Z,17.90
2023-05-23T23:48:07.234Z,17.70
2023-05-23T23:50:34.152Z,17.50
2023-05-23T23:53:01.109Z,17.40
2023-05-23T23:55:28.015Z,17.40
2023-05-23T23:57:54.914Z,17.50
